Productos aeronáuticos

  • SIGMET
  • METAR / SPECI
  • TAF
  • AIREP
  • Aviso de aeródromo
  • Pronárea
  • Carta superficie

Mensajes METAR de la última hora

SUAA 262200Z 06008KT CAVOK 20/15 Q1012
SUCA 262200Z 03010KT CAVOK 22/15 Q1008
SULS 262200Z 03010KT CAVOK 19/15 Q1013
SUMU 262200Z 03007KT CAVOK 21/15 Q1012 NOSIG

Mensajes METAR de la última hora - Internacionales


Argentina
SAAR 262200Z 02007KT CAVOK 22/15 Q1007
SABE 262200Z 01004KT 330V070 CAVOK 19/15 Q1010
SACO 262200Z 00000KT 9999 SCT025 SCT100 20/16 Q1008
SAEZ 262200Z 01009KT CAVOK 23/14 Q1009
SAME 262200Z 14007KT 9999 OVC045 12/06 Q1013
Bolivia
SLCP 262200Z 36008KT 9999 NSC 26/19 Q1014
SLLP 262200Z 27004KT 220V310 9999 NSC 11/M11 Q1035
Brasil
SBBR 262200Z 16007KT CAVOK 19/11 Q1021
SBFI 262200Z 04005KT CAVOK 21/12 Q1016
SBFL 262200Z 01010KT CAVOK 19/15 Q1021
SBGR 262200Z 09003KT CAVOK 18/14 Q1025
SBPA 262200Z 08003KT CAVOK 17/14 Q1019
SBRJ 262200Z 16004KT 9999 FEW018 21/18 Q1023
SBSP 262200Z 15006KT 9000 NSC 16/14 Q1025
Colombia
SKBO 262200Z 30008KT 8000 DZ FEW005 BKN017 15/12 A3028
Chile
SCCI 262200Z 27008KT 9999 FEW040 SCT100 02/M00 Q1018 NOSIG
SCEL 262200Z 02008KT 9999 FEW006 BKN060 OVC080 11/09 Q1016 NOSIG
Ecuador
SEQM 262200Z 01010KT 9999 SCT030 SCT100 17/12 Q1024 NOSIG RMK A3023
EEUU
KMIA 262153Z 13008KT 10SM FEW035 SCT060 SCT130 SCT300 32/23 A2999 RMK AO2 LTG DSNT N AND NW SLP156 CB DSNT SW-NW-N T03170228
KDCA 262152Z 19009KT 10SM BKN085 BKN250 28/09 A3000 RMK AO2 SLP157 T02830094
KIAD 262152Z 24007KT 10SM SCT080 SCT110 27/08 A2999 RMK AO2 SLP154 T02670078
KJFK 262151Z 18017KT 10SM FEW070 SCT100 SCT260 23/12 A3000 RMK AO2 SLP157 T02330117
KLGA 262151Z 18012G19KT 10SM SCT070 SCT095 SCT250 24/11 A2998 RMK AO2 SLP150 T02440106
España
LEBL 262200Z 22005KT 9999 FEW028 25/22 Q1010 NOSIG
LEMD 262200Z 24005KT CAVOK 26/07 Q1012 NOSIG
LEBL 262130Z 21003KT 9999 FEW028 26/21 Q1010 NOSIG
LEMD 262130Z 24007KT CAVOK 27/07 Q1012 NOSIG
Francia
LFPO 262200Z 14003KT CAVOK 21/16 Q1010 NOSIG
LFPO 262130Z 07003KT CAVOK 21/16 Q1010 NOSIG
Inglaterra
EGLL 262150Z AUTO 09010KT 9999 NCD 18/08 Q1012
EGLL 262120Z AUTO 10007KT 9999 NCD 18/07 Q1012 NOSIG
Panamá
MPTO 262200Z 28006KT 8000 VCSH FEW008 SCT016CB BKKN080 28/26 Q1011 TEMPO 6000 TSRA
Paraguay
SGAS 262200Z 08008KT 040V110 CAVOK 24/15 Q1011
Venezuela
SVMI 262200Z 05005KT 9999 SCT016 29/20 Q1010

* Datos extraidos del Text DataServer de la NOAA (NOAA TEXT DATA SERVER)

Instituto Uruguayo de Meteorología

Dr. Javier Barrios Amorín 1488 - CP 11200
Mesa Central (598) 1895

Montevideo - Uruguay